• Join FlightAware (Why Join?)
  • Login
  • US Flag 
11:02PM EDT


 

Airport Tracker/Info


-or-


 

Live Flight TrackerFlight Track Log ✈ N672DS ✈ 20-Jun-2013 ✈ KFDK - KDMW

Flight Track Log - Related Links

Times and Time Zones

All times are in EDT time to prevent confusion due to time zone crossing. See the N672DS flight status page for this flight to view local times or setup timezone preferences in your user account.

Time Position Orientation Groundspeed Altitude Reporting Facility
EDT Latitude Longitude Course Direction KTS MPH feet Rate Location/Type
10:51AM 39.4333 -77.3167 76° East 113 130 2,900  Level Potomac TRACON
10:52AM 39.4333 -77.2667 90° East 111 128 3,000  Climbing Potomac TRACON
10:53AM 39.4333 -77.2333 90° East 125 144 2,900 -60 Descending Potomac TRACON
10:54AM 39.4333 -77.1833 90° East 116 133 2,900  Level Potomac TRACON
10:55AM 39.4167 -77.1500 123° Southeast 123 142 2,900  Level Potomac TRACON
10:56AM 39.4526 -77.1478 76° East  Level FlightAware Approximate
10:56AM 39.4167 -77.1000 90° East 129 148 3,000  Level Potomac TRACON
10:57AM 39.4167 -77.0500 90° East 124 143 2,900  Descending Potomac TRACON
10:58AM 39.4167 -77.0167 90° East 122 140 3,000  Climbing Potomac TRACON
10:59AM 39.4167 -76.9667 90° East 136 157 3,000  Level Potomac TRACON
11:00AM 39.4333 -76.9333 57° Northeast 129 148 3,000 -240 Level Potomac TRACON
11:01AM 39.4667 -76.9000 38° Northeast 146 168 2,600 -300 Descending Potomac TRACON
11:02AM 39.5000 -76.9167 339° North 139 160 2,400 -300 Descending Potomac TRACON
11:03AM 39.5333 -76.9500 322° Northwest 138 159 2,100 -180 Descending Potomac TRACON
11:04AM 39.5500 -76.9667 322° Northwest 127 146 2,100  Level Potomac TRACON
11:05AM 39.5667 -76.9833 322° Northwest 135 155 2,100  Level Potomac TRACON
11:06AM 39.5667 -76.9833 218° Southwest 135 155 2,100  Level Potomac TRACON
11:08AM 39.5667 -76.9833 218° Southwest 135 155 2,100  Level Potomac TRACON
11:10AM 39.5667 -76.9833 218° Southwest 135 155 2,100  Level Potomac TRACON
11:12AM 39.5667 -76.9833 218° Southwest 135 155 2,100  Level Potomac TRACON
11:14AM 39.5667 -76.9833 218° Southwest 135 155 2,100  Level Potomac TRACON
11:17AM 39.6000 -77.0000 339° North  Level FlightAware Approximate